Time;durP1;ratioP1;P1;durP2;ratioP2;P2;SDS_P1;SDS_P2;PMS_P1;PMS_P2;Temp;Humidity;BMP_temperature;BMP_pressure;BME280_temperature;BME280_humidity;BME280_pressure;Samples;Min_cycle;Max_cycle;Signal;HPM_P1;HPM_P2
2022/09/13 00:02:19;;;;;;;26.70;12.13;;;;;;;13.87;90.40;100534.89;5229216;56;1143233;-72
2022/09/13 00:07:25;;;;;;;28.60;11.07;;;;;;;13.72;90.23;100520.69;5231837;56;1143153;-71
2022/09/13 00:12:30;;;;;;;20.50;10.70;;;;;;;13.61;90.31;100514.15;5229813;56;1143284;-71
2022/09/13 00:17:36;;;;;;;15.93;9.27;;;;;;;13.56;90.28;100505.77;5147809;57;1143143;-70
2022/09/13 00:22:43;;;;;;;16.83;8.70;;;;;;;13.56;90.72;100508.43;4982325;59;1141237;-69
2022/09/13 00:27:48;;;;;;;19.70;10.77;;;;;;;13.57;90.82;100497.31;5145422;57;1141034;-71
2022/09/13 00:32:55;;;;;;;26.30;12.23;;;;;;;13.49;90.49;100491.34;5144501;57;1143212;-70
2022/09/13 00:38:02;;;;;;;24.17;11.13;;;;;;;13.34;90.29;100492.72;5199532;56;1143107;-71
2022/09/13 00:43:20;;;;;;;17.17;8.97;;;;;;;13.23;90.52;100496.84;5231601;56;1142535;-69
2022/09/13 00:48:26;;;;;;;14.17;7.87;;;;;;;13.21;90.66;100481.52;5193538;56;1141071;-69
2022/09/13 00:53:36;;;;;;;15.97;9.47;;;;;;;13.26;91.08;100485.95;5205772;56;1141156;-70
2022/09/13 00:58:49;;;;;;;15.73;7.17;;;;;;;13.25;90.99;100483.78;5231427;56;1141331;-70
2022/09/13 01:03:55;;;;;;;25.40;7.70;;;;;;;13.22;91.21;100479.22;5230423;56;1141148;-69
2022/09/13 01:09:03;;;;;;;10.63;6.47;;;;;;;13.09;90.48;100477.27;5232945;56;1140989;-70
2022/09/13 01:14:10;;;;;;;10.33;6.07;;;;;;;12.91;90.59;100474.42;5158662;56;1141090;-70
2022/09/13 01:19:15;;;;;;;9.73;7.13;;;;;;;12.81;90.83;100469.09;5150835;56;1141192;-70
2022/09/13 01:24:53;;;;;;;10.80;6.77;;;;;;;12.80;91.29;100467.90;5103293;57;1138792;-71
2022/09/13 01:30:23;;;;;;;7.23;5.77;;;;;;;12.81;91.57;100465.60;5137090;56;1141045;-70
2022/09/13 01:36:01;;;;;;;6.47;5.27;;;;;;;12.77;91.46;100458.39;5147521;56;1139300;-70
2022/09/13 01:41:41;;;;;;;9.77;5.70;;;;;;;12.68;91.37;100466.65;5225853;56;1137012;-69
2022/09/13 01:47:13;;;;;;;13.10;7.17;;;;;;;12.64;91.36;100454.64;5081540;57;1136904;-69
2022/09/13 01:52:32;;;;;;;14.17;8.40;;;;;;;12.67;91.63;100456.20;5199739;56;21167;-71
2022/09/13 01:57:55;;;;;;;13.43;8.37;;;;;;;12.57;91.26;100444.69;5223397;56;1137041;-69
2022/09/13 02:03:13;;;;;;;17.57;10.30;;;;;;;12.46;91.27;100437.67;5128664;57;1141143;-71
2022/09/13 02:08:39;;;;;;;31.83;10.00;;;;;;;12.38;91.73;100422.05;5049308;58;1143349;-70
2022/09/13 02:14:01;;;;;;;24.53;11.30;;;;;;;12.28;91.60;100414.90;5011928;58;1143318;-71
2022/09/13 02:19:17;;;;;;;26.43;12.00;;;;;;;12.23;91.79;100401.67;5058897;58;1143673;-71
2022/09/13 02:24:45;;;;;;;9.73;6.00;;;;;;;12.19;91.79;100405.09;5037687;58;1143178;-70
2022/09/13 02:29:56;;;;;;;11.13;5.40;;;;;;;12.09;92.07;100396.72;5060019;58;1139072;-70
2022/09/13 02:35:12;;;;;;;11.60;5.10;;;;;;;11.99;92.29;100386.08;5053520;58;1141209;-69
2022/09/13 02:40:23;;;;;;;15.40;5.10;;;;;;;11.93;92.50;100382.61;5067984;58;1141322;-71
2022/09/13 02:45:34;;;;;;;7.30;5.20;;;;;;;11.92;92.47;100375.63;5039549;58;1141246;-70
2022/09/13 02:51:05;;;;;;;6.47;4.50;;;;;;;11.86;92.89;100366.41;5146501;56;1139478;-70
2022/09/13 02:56:56;;;;;;;5.90;4.80;;;;;;;11.84;93.19;100363.05;5237594;56;1137291;-71
2022/09/13 03:02:21;;;;;;;9.40;5.40;;;;;;;11.80;93.39;100349.70;5246937;56;1137429;-70
2022/09/13 03:07:27;;;;;;;8.27;4.33;;;;;;;11.83;94.01;100353.42;5251174;56;1134910;-71
2022/09/13 03:13:02;;;;;;;5.90;4.73;;;;;;;11.83;93.60;100343.30;5243148;56;1134940;-71
2022/09/13 03:19:04;;;;;;;7.70;5.37;;;;;;;11.80;93.27;100347.05;5156678;57;1139355;-69
2022/09/13 03:24:37;;;;;;;10.20;4.80;;;;;;;11.77;93.58;100337.19;5128748;57;1139453;-70
2022/09/13 03:30:07;;;;;;;8.37;5.27;;;;;;;11.71;93.63;100327.10;5146421;57;1141049;-71
2022/09/13 03:35:23;;;;;;;11.00;5.13;;;;;;;11.64;93.68;100324.96;4997390;58;1138875;-70
2022/09/13 03:40:50;;;;;;;10.07;5.17;;;;;;;11.64;93.71;100329.42;5027236;58;1141267;-70
2022/09/13 03:46:00;;;;;;;10.27;5.60;;;;;;;11.67;93.91;100326.52;4950464;59;1141557;-70
2022/09/13 03:51:07;;;;;;;11.83;6.57;;;;;;;11.65;94.11;100307.26;4916358;58;1139571;-72
2022/09/13 03:56:19;;;;;;;15.63;5.97;;;;;;;11.58;94.18;100302.15;5221370;56;1139476;-71
2022/09/13 04:01:26;;;;;;;11.27;6.03;;;;;;;11.54;93.93;100302.05;5225084;56;1139374;-69
2022/09/13 04:06:32;;;;;;;10.97;5.67;;;;;;;11.46;94.45;100304.48;5233656;55;1139042;-70
2022/09/13 04:11:39;;;;;;;11.23;5.30;;;;;;;11.43;94.56;100302.97;5336169;55;1138898;-70
2022/09/13 04:16:46;;;;;;;11.83;5.77;;;;;;;11.45;94.57;100309.46;5215572;55;1139252;-71
2022/09/13 04:21:54;;;;;;;11.25;5.85;;;;;;;11.49;94.90;100309.53;5063303;58;1139095;-70
2022/09/13 04:27:03;;;;;;;12.30;4.83;;;;;;;11.47;94.91;100308.81;5156204;56;1139335;-70
2022/09/13 04:32:10;;;;;;;68.77;35.23;;;;;;;11.44;94.98;100309.94;5148299;57;1139434;-70
2022/09/13 04:37:16;;;;;;;49.33;27.90;;;;;;;11.40;94.96;100313.81;5172887;56;1141513;-71
2022/09/13 04:42:23;;;;;;;35.97;18.80;;;;;;;11.34;94.82;100310.34;5162306;56;1141154;-70
2022/09/13 04:47:28;;;;;;;29.43;12.53;;;;;;;11.33;95.24;100301.20;5182382;56;1141269;-69
2022/09/13 04:52:34;;;;;;;20.90;7.97;;;;;;;11.32;95.39;100308.30;5169065;56;1141210;-71
2022/09/13 04:57:44;;;;;;;14.93;6.70;;;;;;;11.32;95.86;100296.88;5174805;56;1139163;-70
2022/09/13 05:02:50;;;;;;;17.43;5.87;;;;;;;11.29;96.66;100299.31;5176505;56;1137312;-70
2022/09/13 05:07:56;;;;;;;11.03;5.57;;;;;;;11.28;96.88;100287.05;5146790;56;1137242;-71
2022/09/13 05:13:01;;;;;;;18.27;7.90;;;;;;;11.31;97.32;100282.80;5158458;56;1141547;-71
2022/09/13 05:18:07;;;;;;;15.90;6.13;;;;;;;11.33;98.10;100283.98;5197184;56;1140943;-72
2022/09/13 05:23:13;;;;;;;9.97;5.97;;;;;;;11.38;98.54;100273.86;5212978;56;1141068;-70
2022/09/13 05:28:19;;;;;;;13.80;4.77;;;;;;;11.43;99.30;100269.86;5159320;56;1139141;-70
2022/09/13 05:33:26;;;;;;;10.63;5.57;;;;;;;11.51;99.81;100258.12;5152313;56;1141506;-71
2022/09/13 05:38:32;;;;;;;14.13;5.87;;;;;;;11.55;100.00;100253.41;5146159;57;1141235;-70
2022/09/13 05:43:38;;;;;;;11.80;6.63;;;;;;;11.63;100.00;100245.14;5146092;57;1143198;-70
2022/09/13 05:48:44;;;;;;;16.30;7.40;;;;;;;11.73;100.00;100240.39;5140666;57;1143209;-71
2022/09/13 05:53:53;;;;;;;25.37;9.20;;;;;;;11.85;100.00;100233.56;5207974;56;1143512;-71
2022/09/13 05:58:59;;;;;;;28.37;8.77;;;;;;;11.99;100.00;100227.05;5234823;56;1143662;-69
2022/09/13 06:04:06;;;;;;;13.47;8.33;;;;;;;12.20;100.00;100226.97;5229801;56;1143564;-71
2022/09/13 06:09:13;;;;;;;15.30;8.27;;;;;;;12.50;100.00;100222.06;5220783;56;1143465;-69
2022/09/13 06:14:19;;;;;;;17.10;7.97;;;;;;;12.81;100.00;100223.60;5170470;56;1143223;-69
2022/09/13 06:19:25;;;;;;;13.07;8.17;;;;;;;13.09;100.00;100214.41;5194659;56;1143330;-70
2022/09/13 06:24:30;;;;;;;12.83;9.70;;;;;;;13.49;100.00;100209.72;5177835;56;1143834;-71
2022/09/13 06:29:37;;;;;;;11.60;8.73;;;;;;;13.86;100.00;100211.53;5164186;56;1143519;-71
2022/09/13 06:34:43;;;;;;;9.83;7.57;;;;;;;14.14;100.00;100207.88;5160557;56;1143439;-69
2022/09/13 06:39:48;;;;;;;8.83;7.20;;;;;;;14.40;100.00;100203.52;5143717;56;1140949;-70
2022/09/13 06:44:54;;;;;;;9.17;7.77;;;;;;;14.69;100.00;100195.30;5147562;57;1141266;-71
2022/09/13 06:50:00;;;;;;;10.33;7.33;;;;;;;14.95;100.00;100186.05;5216625;56;1141089;-72
2022/09/13 06:55:07;;;;;;;8.00;7.17;;;;;;;15.09;100.00;100179.32;5216954;56;1143493;-71
2022/09/13 07:00:13;;;;;;;7.53;6.57;;;;;;;15.14;100.00;100181.84;5179879;56;1141426;-72
2022/09/13 07:05:21;;;;;;;7.23;6.40;;;;;;;15.24;100.00;100178.25;5088236;57;1141163;-71
2022/09/13 07:10:27;;;;;;;7.27;6.57;;;;;;;15.19;100.00;100172.55;5148294;56;1141392;-69
2022/09/13 07:15:36;;;;;;;6.83;6.03;;;;;;;15.24;100.00;100167.59;5168664;56;1141117;-70
2022/09/13 07:20:41;;;;;;;6.20;5.60;;;;;;;15.33;100.00;100169.30;5181044;56;1141228;-70
2022/09/13 07:25:54;;;;;;;6.07;4.97;;;;;;;15.38;100.00;100167.84;5057255;57;1141234;-71
2022/09/13 07:31:24;;;;;;;6.13;5.10;;;;;;;15.39;100.00;100166.02;5050872;58;1141092;-70
2022/09/13 07:36:32;;;;;;;5.40;4.67;;;;;;;15.36;100.00;100166.32;5146322;56;1141140;-69
2022/09/13 07:41:38;;;;;;;5.20;4.70;;;;;;;15.39;100.00;100159.35;5183876;56;1141293;-69
2022/09/13 07:46:44;;;;;;;5.30;4.77;;;;;;;15.48;100.00;100154.39;5155911;56;1141026;-71
2022/09/13 07:51:53;;;;;;;6.20;3.80;;;;;;;15.57;100.00;100145.48;5197303;55;1141139;-69
2022/09/13 07:56:59;;;;;;;4.73;4.33;;;;;;;15.65;100.00;100149.50;5225951;55;1138924;-71
2022/09/13 08:02:04;;;;;;;7.13;4.10;;;;;;;15.73;100.00;100153.55;5182867;56;1139122;-70
2022/09/13 08:07:10;;;;;;;4.83;4.37;;;;;;;15.82;100.00;100151.23;5114552;56;1139706;-70
2022/09/13 08:12:15;;;;;;;5.57;4.30;;;;;;;16.02;100.00;100154.47;5196412;56;1139507;-69
2022/09/13 08:17:21;;;;;;;5.43;4.30;;;;;;;16.23;100.00;100143.32;5160709;56;1139015;-72
2022/09/13 08:22:27;;;;;;;6.20;4.70;;;;;;;16.54;100.00;100136.34;5160265;56;1139438;-64
2022/09/13 08:27:32;;;;;;;5.70;3.97;;;;;;;16.70;100.00;100142.72;5177150;56;1139313;-75
2022/09/13 08:32:38;;;;;;;3.47;3.23;;;;;;;16.69;100.00;100133.88;5189135;56;1139044;-76
2022/09/13 08:37:45;;;;;;;5.87;3.97;;;;;;;16.71;100.00;100132.37;5157911;56;1139004;-75
2022/09/13 08:43:22;;;;;;;5.90;3.60;;;;;;;16.72;99.90;100124.70;5171041;56;1139422;-74
2022/09/13 08:48:40;;;;;;;16.30;8.50;;;;;;;16.72;100.00;100117.52;5176439;56;1136862;-75
2022/09/13 08:53:49;;;;;;;29.43;16.87;;;;;;;16.77;98.06;100119.19;5183223;56;1143171;-76
2022/09/13 08:59:25;;;;;;;12.47;7.33;;;;;;;16.75;97.80;100102.50;5174348;56;1143190;-75
2022/09/13 09:04:41;;;;;;;6.83;5.23;;;;;;;16.79;98.55;100094.99;5173172;56;1141187;-76
2022/09/13 09:09:51;;;;;;;5.33;4.77;;;;;;;16.85;98.29;100094.30;5152884;56;1139051;-75
2022/09/13 09:15:05;;;;;;;6.73;4.73;;;;;;;16.83;97.62;100077.59;5171416;56;1139002;-75
2022/09/13 09:20:40;;;;;;;3.67;2.80;;;;;;;16.79;97.52;100053.09;5154793;56;1139108;-76
2022/09/13 09:25:48;;;;;;;4.13;3.73;;;;;;;16.84;97.23;100049.89;5144885;57;1139128;-74
2022/09/13 09:31:04;;;;;;;5.97;5.37;;;;;;;16.98;98.13;100053.69;5156085;56;1139024;-75
2022/09/13 09:36:20;;;;;;;9.40;4.90;;;;;;;17.12;97.99;100059.15;5106900;56;1139035;-75
2022/09/13 09:41:31;;;;;;;11.30;5.03;;;;;;;17.14;96.60;100074.52;5151851;56;1139088;-75
2022/09/13 09:46:40;;;;;;;5.50;4.80;;;;;;;17.13;96.13;100068.00;5166298;56;1141092;-76
2022/09/13 09:51:46;;;;;;;8.80;4.73;;;;;;;17.10;96.31;100060.36;5170137;56;1139240;-76
2022/09/13 09:56:56;;;;;;;5.07;4.30;;;;;;;17.06;96.26;100050.51;5175708;56;1138976;-76
2022/09/13 10:02:17;;;;;;;6.20;5.50;;;;;;;17.07;96.61;100057.52;5167624;56;1139026;-76
2022/09/13 10:07:34;;;;;;;6.07;4.70;;;;;;;17.08;96.83;100053.02;5144702;56;1137015;-76
2022/09/13 10:12:41;;;;;;;11.57;5.20;;;;;;;17.09;97.13;100027.95;5217732;56;1137162;-76
2022/09/13 10:18:14;;;;;;;6.00;4.20;;;;;;;17.16;97.25;100008.88;5183702;56;1139299;-75
2022/09/13 10:23:22;;;;;;;6.70;4.77;;;;;;;17.33;97.80;100009.63;5162715;56;1136971;-76
2022/09/13 10:28:30;;;;;;;10.23;5.67;;;;;;;17.53;97.36;99998.34;5160252;56;1136981;-75
2022/09/13 10:33:44;;;;;;;6.53;4.97;;;;;;;17.66;97.12;99991.09;5151745;56;1137148;-76
2022/09/13 10:39:07;;;;;;;6.73;6.10;;;;;;;17.78;96.60;99996.86;5126258;57;1135217;-75
2022/09/13 10:44:35;;;;;;;6.65;5.85;;;;;;;17.93;96.81;99995.08;5159455;56;1137175;-75
2022/09/13 10:49:47;;;;;;;6.33;4.77;;;;;;;18.01;95.63;99995.02;5167633;56;1136931;-75
2022/09/13 10:54:55;;;;;;;10.10;4.35;;;;;;;18.02;93.65;99988.66;5196288;56;1136989;-75
2022/09/13 11:00:02;;;;;;;5.43;4.10;;;;;;;18.11;94.66;100003.63;5172391;56;1139122;-68
2022/09/13 11:05:36;;;;;;;6.35;5.28;;;;;;;18.24;94.70;100001.17;5168124;56;1139129;-71
2022/09/13 11:11:24;;;;;;;8.30;5.03;;;;;;;18.30;90.62;99990.76;5177393;56;1139043;-68
2022/09/13 11:16:53;;;;;;;8.57;5.33;;;;;;;18.26;90.81;99980.41;5192141;56;1136953;-67
2022/09/13 11:22:15;;;;;;;7.20;5.37;;;;;;;18.21;90.82;99975.26;5204738;56;1137082;-68
2022/09/13 11:27:35;;;;;;;4.10;3.70;;;;;;;18.20;91.14;99961.05;5216725;56;1136935;-75
2022/09/13 11:33:13;;;;;;;8.57;6.10;;;;;;;18.28;91.89;99952.95;5215039;56;1134905;-75
2022/09/13 11:38:29;;;;;;;6.90;5.60;;;;;;;18.32;91.78;99960.12;5181466;56;1134854;-75
2022/09/13 11:43:48;;;;;;;7.10;5.30;;;;;;;18.33;91.29;99948.91;5175316;56;1135180;-76
2022/09/13 11:49:17;;;;;;;7.80;6.23;;;;;;;18.30;91.10;99943.91;5200263;56;1135066;-75
2022/09/13 11:55:15;;;;;;;7.40;5.93;;;;;;;18.32;91.93;99944.05;5240241;56;1136936;-75
2022/09/13 12:00:32;;;;;;;11.88;5.55;;;;;;;18.33;92.12;99944.89;5250752;56;1137245;-74
2022/09/13 12:05:47;;;;;;;10.03;5.60;;;;;;;18.34;92.99;99920.58;5250314;56;1139323;-74
2022/09/13 12:11:06;;;;;;;12.25;5.50;;;;;;;18.40;92.80;99921.20;5179565;56;1139112;-75
2022/09/13 12:16:31;;;;;;;5.15;4.75;;;;;;;18.43;92.01;99912.80;5163898;57;1139108;-75
2022/09/13 12:21:40;;;;;;;5.22;4.72;;;;;;;18.46;91.58;99910.27;5164421;56;1136974;-76
2022/09/13 12:27:01;;;;;;;5.42;4.92;;;;;;;18.46;91.48;99900.39;5178969;56;1136824;-75
2022/09/13 12:32:09;;;;;;;5.40;4.90;;;;;;;18.55;92.78;99902.45;5161284;57;1137049;-75
2022/09/13 12:37:36;;;;;;;6.53;5.03;;;;;;;18.63;92.29;99896.22;5124005;57;1136874;-75
2022/09/13 12:43:10;;;;;;;6.55;4.12;;;;;;;18.65;91.80;99898.17;5162668;57;1137159;-76
2022/09/13 12:49:07;;;;;;;6.78;5.62;;;;;;;18.65;91.75;99890.14;5149367;57;1134891;-76
2022/09/13 12:54:52;;;;;;;5.15;4.65;;;;;;;18.64;91.70;99877.79;5161243;57;1134786;-76
2022/09/13 13:00:30;;;;;;;6.58;4.42;;;;;;;18.60;91.20;99860.75;5120117;57;1136938;-76
2022/09/13 13:05:42;;;;;;;4.87;3.90;;;;;;;18.59;91.46;99866.29;5072101;58;1136957;-75
2022/09/13 13:11:06;;;;;;;4.85;4.45;;;;;;;18.57;90.73;99868.28;5106397;57;1137000;-75
2022/09/13 13:16:35;;;;;;;6.00;4.53;;;;;;;18.54;90.97;99859.28;5111100;57;1136961;-75
2022/09/13 13:21:41;;;;;;;7.92;4.17;;;;;;;18.57;91.62;99845.52;5076127;58;1137028;-75
2022/09/13 13:26:54;;;;;;;5.95;5.25;;;;;;;18.62;91.32;99840.48;5077021;57;1136988;-75
2022/09/13 13:32:07;;;;;;;7.62;4.78;;;;;;;18.79;92.04;99831.72;5143247;56;1136995;-76
2022/09/13 13:37:22;;;;;;;8.10;6.25;;;;;;;19.06;89.88;99824.28;5118092;57;1137062;-75
2022/09/13 13:42:34;;;;;;;6.33;4.87;;;;;;;19.06;89.33;99824.28;5163338;57;1136983;-74
2022/09/13 13:47:43;;;;;;;15.38;11.22;;;;;;;18.95;89.35;99832.28;5145970;57;1136888;-75
2022/09/13 13:52:54;;;;;;;45.85;30.85;;;;;;;18.86;90.70;99829.41;5110053;57;1141309;-75
2022/09/13 13:58:39;;;;;;;6.80;6.00;;;;;;;18.83;90.27;99822.26;5126170;57;1141097;-74
2022/09/13 14:04:07;;;;;;;5.92;5.35;;;;;;;18.79;89.50;99818.32;5111755;57;1134918;-75
2022/09/13 14:09:32;;;;;;;5.62;5.10;;;;;;;18.76;89.30;99810.66;5149387;57;1134960;-75
2022/09/13 14:15:06;;;;;;;7.37;6.67;;;;;;;18.73;89.75;99797.63;5154035;57;1134953;-75
2022/09/13 14:20:16;;;;;;;9.63;6.60;;;;;;;18.76;90.48;99799.94;5138817;57;1136894;-75
2022/09/13 14:25:25;;;;;;;15.65;7.03;;;;;;;18.84;90.97;99782.39;5120751;57;1137181;-75
2022/09/13 14:30:38;;;;;;;9.43;6.12;;;;;;;18.93;91.11;99776.73;5082076;56;1139041;-75
2022/09/13 14:35:44;;;;;;;5.10;4.65;;;;;;;19.00;90.50;99781.31;5235436;56;1136920;-76
2022/09/13 14:40:53;;;;;;;6.67;5.37;;;;;;;19.01;89.78;99777.11;5164887;56;1137024;-75
2022/09/13 14:46:23;;;;;;;9.43;5.83;;;;;;;19.02;90.41;99769.90;5175064;56;1136933;-75
2022/09/13 14:51:51;;;;;;;6.05;3.55;;;;;;;18.98;90.82;99770.78;5245696;56;1136872;-75
2022/09/13 14:57:01;;;;;;;10.55;4.15;;;;;;;19.00;90.35;99760.70;5227162;56;1136969;-75
2022/09/13 15:02:19;;;;;;;5.05;4.00;;;;;;;19.02;90.99;99765.37;5165286;57;1139096;-75
2022/09/13 15:07:40;;;;;;;4.67;4.10;;;;;;;19.00;88.79;99763.39;5178240;56;1136929;-75
2022/09/13 15:12:59;;;;;;;9.55;5.00;;;;;;;18.96;89.59;99765.61;5165734;57;1136910;-75
2022/09/13 15:18:12;;;;;;;5.20;4.67;;;;;;;18.91;89.59;99760.02;5183514;56;1136966;-75
2022/09/13 15:23:34;;;;;;;6.53;4.67;;;;;;;18.84;89.70;99764.47;5240245;56;1137088;-75
2022/09/13 15:28:49;;;;;;;8.53;5.17;;;;;;;18.83;90.03;99760.63;5243103;56;1135019;-75
2022/09/13 15:34:21;;;;;;;5.72;5.12;;;;;;;18.80;90.51;99755.66;5164018;56;1134846;-75
2022/09/13 15:39:27;;;;;;;29.70;17.15;;;;;;;18.78;90.68;99766.59;5149860;56;1134867;-75
2022/09/13 15:44:35;;;;;;;71.85;33.33;;;;;;;18.80;91.29;99758.33;5149809;56;1138968;-76
2022/09/13 15:49:44;;;;;;;11.68;9.33;;;;;;;18.79;91.77;99757.50;5151567;56;1139040;-76
2022/09/13 15:54:51;;;;;;;8.18;6.75;;;;;;;18.78;92.16;99753.70;5166963;56;1136974;-76
2022/09/13 15:59:57;;;;;;;8.03;6.60;;;;;;;18.76;92.54;99765.11;5215556;56;1134940;-76
2022/09/13 16:05:03;;;;;;;9.80;7.60;;;;;;;18.69;93.01;99773.06;5065284;58;1132915;-76
2022/09/13 16:10:16;;;;;;;10.23;5.78;;;;;;;18.67;93.77;99770.25;5065151;58;1132759;-75
2022/09/13 16:15:22;;;;;;;8.00;5.57;;;;;;;18.52;96.31;99773.77;5064636;58;1139129;-75
2022/09/13 16:20:28;;;;;;;23.65;16.35;;;;;;;18.22;100.00;99772.16;5055603;58;1137142;-76
2022/09/13 16:25:36;;;;;;;7.90;6.97;;;;;;;17.95;100.00;99780.34;5149570;56;1143409;-75
2022/09/13 16:30:41;;;;;;;11.60;7.73;;;;;;;17.75;100.00;99773.36;5192329;56;1138894;-75
2022/09/13 16:35:48;;;;;;;9.10;7.70;;;;;;;17.57;100.00;99770.17;5220145;56;1141129;-76
2022/09/13 16:40:54;;;;;;;10.00;7.57;;;;;;;17.44;100.00;99766.78;5166296;56;1139238;-76
2022/09/13 16:46:08;;;;;;;26.27;12.90;;;;;;;17.40;100.00;99766.02;5232996;56;1141254;-75
2022/09/13 16:51:14;;;;;;;35.43;20.03;;;;;;;17.36;100.00;99764.70;5219291;56;1143645;-76
2022/09/13 16:56:23;;;;;;;9.40;8.00;;;;;;;17.34;100.00;99764.05;5166907;56;1143321;-76
2022/09/13 17:01:31;;;;;;;10.33;8.13;;;;;;;17.24;100.00;99764.31;5155308;57;1139079;-76
2022/09/13 17:06:36;;;;;;;17.10;13.20;;;;;;;17.09;100.00;99770.95;5194790;56;1141143;-75
2022/09/13 17:11:45;;;;;;;26.37;17.20;;;;;;;16.97;100.00;99763.51;5241927;56;1143260;-75
2022/09/13 17:16:54;;;;;;;40.77;24.53;;;;;;;16.97;100.00;99762.17;5239631;56;1143163;-76
2022/09/13 17:22:03;;;;;;;30.15;17.90;;;;;;;17.00;100.00;99753.30;5242076;56;1143238;-76
2022/09/13 17:27:08;;;;;;;43.53;20.47;;;;;;;17.04;100.00;99750.61;5208760;56;1143213;-76
2022/09/13 17:32:15;;;;;;;15.33;11.47;;;;;;;17.08;100.00;99749.25;5188723;56;1143560;-75
2022/09/13 17:37:20;;;;;;;10.60;9.23;;;;;;;17.10;100.00;99750.41;5195206;56;1143258;-75
2022/09/13 17:42:26;;;;;;;14.63;12.20;;;;;;;17.11;100.00;99750.20;5203179;56;1141157;-76
2022/09/13 17:47:32;;;;;;;13.37;10.93;;;;;;;17.04;100.00;99757.80;5223543;56;1143309;-75
2022/09/13 17:52:38;;;;;;;12.43;9.67;;;;;;;17.00;100.00;99750.63;5188234;56;1143097;-75
2022/09/13 17:57:48;;;;;;;12.37;9.03;;;;;;;17.00;100.00;99758.65;5191739;56;1141610;-75
2022/09/13 18:02:53;;;;;;;12.57;10.03;;;;;;;16.97;100.00;99754.16;5165087;57;1141627;-76
2022/09/13 18:08:00;;;;;;;11.97;10.47;;;;;;;16.90;100.00;99759.91;5164937;57;1143225;-76
2022/09/13 18:13:06;;;;;;;24.33;11.07;;;;;;;16.83;100.00;99754.43;5165194;56;1143146;-76
2022/09/13 18:18:12;;;;;;;17.40;11.73;;;;;;;16.82;100.00;99752.77;5197169;56;1143123;-75
2022/09/13 18:23:19;;;;;;;14.60;11.57;;;;;;;16.76;100.00;99755.66;5199077;56;1143616;-75
2022/09/13 18:28:26;;;;;;;13.23;10.43;;;;;;;16.74;100.00;99750.17;5217850;56;1143198;-75
2022/09/13 18:33:33;;;;;;;13.70;12.20;;;;;;;16.75;100.00;99749.16;5196403;56;1143172;-75
2022/09/13 18:38:45;;;;;;;13.87;11.27;;;;;;;16.77;100.00;99743.14;5180747;56;1143186;-75
2022/09/13 18:43:53;;;;;;;14.23;11.65;;;;;;;16.76;100.00;99752.99;5150293;57;1143221;-75
2022/09/13 18:49:01;;;;;;;10.37;9.13;;;;;;;16.70;100.00;99754.19;5149770;57;1143170;-75
2022/09/13 18:54:10;;;;;;;14.60;9.80;;;;;;;16.61;100.00;99753.39;5157517;56;1141178;-74
2022/09/13 18:59:16;;;;;;;14.83;10.73;;;;;;;16.54;100.00;99756.42;5162910;56;1139039;-75
2022/09/13 19:04:22;;;;;;;11.87;9.63;;;;;;;16.44;100.00;99756.66;5149775;57;1141139;-75
2022/09/13 19:09:27;;;;;;;11.50;9.63;;;;;;;16.40;100.00;99756.67;5149451;57;1139323;-75
2022/09/13 19:14:34;;;;;;;13.10;10.03;;;;;;;16.39;100.00;99759.01;5152646;56;1139229;-74
2022/09/13 19:19:39;;;;;;;12.13;10.87;;;;;;;16.38;100.00;99752.52;5152477;56;1141152;-75
2022/09/13 19:24:47;;;;;;;15.13;11.60;;;;;;;16.35;100.00;99761.69;5149856;57;1141152;-75
2022/09/13 19:29:53;;;;;;;11.17;10.07;;;;;;;16.31;100.00;99762.23;5149781;57;1141141;-75
2022/09/13 19:34:59;;;;;;;11.47;10.27;;;;;;;16.31;100.00;99755.56;5152136;57;1141414;-75
2022/09/13 19:40:06;;;;;;;11.53;9.90;;;;;;;16.28;100.00;99761.24;5119809;56;1141110;-75
2022/09/13 19:45:12;;;;;;;11.97;10.60;;;;;;;16.25;100.00;99763.75;5125543;56;1139429;-75
2022/09/13 19:50:18;;;;;;;12.60;10.70;;;;;;;16.27;100.00;99761.75;5121439;56;1141322;-75
2022/09/13 19:55:24;;;;;;;14.23;10.23;;;;;;;16.29;100.00;99762.41;5107425;56;1141070;-75
2022/09/13 20:00:31;;;;;;;13.30;9.70;;;;;;;16.26;100.00;99756.08;5134669;56;1141077;-75
2022/09/13 20:05:37;;;;;;;12.77;11.43;;;;;;;16.29;100.00;99754.41;5101092;56;1138948;-75
2022/09/13 20:10:43;;;;;;;12.97;10.80;;;;;;;16.26;100.00;99750.73;5123332;56;1141447;-75
2022/09/13 20:15:48;;;;;;;13.13;10.83;;;;;;;16.28;100.00;99750.57;5119332;57;1141318;-74
2022/09/13 20:20:56;;;;;;;12.43;9.80;;;;;;;16.25;100.00;99746.41;5114720;56;1139110;-75
2022/09/13 20:26:02;;;;;;;13.10;11.07;;;;;;;16.23;100.00;99750.25;5126669;56;1136838;-75
2022/09/13 20:31:08;;;;;;;14.90;11.73;;;;;;;16.23;100.00;99746.25;5105738;56;1143183;-76
2022/09/13 20:36:15;;;;;;;13.97;11.93;;;;;;;16.22;100.00;99742.75;5136794;56;1143179;-75
2022/09/13 20:41:21;;;;;;;14.33;11.70;;;;;;;16.24;100.00;99739.91;5149525;57;1143371;-75
2022/09/13 20:46:28;;;;;;;13.50;11.67;;;;;;;16.25;100.00;99743.74;5149601;57;1143090;-75
2022/09/13 20:51:33;;;;;;;14.42;12.92;;;;;;;16.26;100.00;99733.39;5176274;56;1143092;-75
2022/09/13 20:56:40;;;;;;;14.50;12.67;;;;;;;16.31;100.00;99723.55;5235649;56;1143211;-75
2022/09/13 21:01:46;;;;;;;15.43;13.50;;;;;;;16.44;100.00;99717.95;5235703;56;1143211;-75
2022/09/13 21:12:15;;;;;;;16.43;13.13;;;;;;;16.68;100.00;99722.33;5235654;56;1143211;-75
2022/09/13 21:17:21;;;;;;;14.60;12.03;;;;;;;16.69;100.00;99712.48;5235729;56;1143251;-75
2022/09/13 21:22:28;;;;;;;24.07;12.37;;;;;;;16.68;100.00;99720.98;5235588;56;1143239;-74
2022/09/13 21:27:34;;;;;;;31.80;15.47;;;;;;;16.66;100.00;99721.66;5235682;56;1143193;-75
2022/09/13 21:32:39;;;;;;;20.77;13.00;;;;;;;16.58;100.00;99711.02;5191480;56;1143203;-75
2022/09/13 21:37:45;;;;;;;14.87;11.90;;;;;;;16.54;100.00;99719.88;5184950;56;1143244;-75
2022/09/13 21:42:51;;;;;;;14.86;12.48;;;;;;;16.46;100.00;99719.12;5106712;57;1143299;-75
2022/09/13 21:47:56;;;;;;;21.13;12.73;;;;;;;16.36;100.00;99713.16;5181769;56;1143248;-75
2022/09/13 21:53:02;;;;;;;14.50;11.40;;;;;;;16.31;100.00;99715.03;5240936;56;1143169;-75
2022/09/13 21:58:10;;;;;;;14.63;11.17;;;;;;;16.23;100.00;99715.06;5235546;56;1143245;-75
2022/09/13 22:03:15;;;;;;;16.20;10.97;;;;;;;16.19;100.00;99715.11;5235615;56;1143344;-75
2022/09/13 22:08:22;;;;;;;16.17;12.77;;;;;;;16.16;100.00;99706.95;5235447;56;1143179;-75
2022/09/13 22:13:28;;;;;;;20.30;11.63;;;;;;;16.10;100.00;99708.96;5235560;56;1143338;-75
2022/09/13 22:18:35;;;;;;;12.53;11.17;;;;;;;16.05;100.00;99707.31;5235465;56;1143240;-75
2022/09/13 22:23:42;;;;;;;17.57;13.37;;;;;;;16.03;100.00;99712.52;5235562;56;1143205;-75
2022/09/13 22:28:49;;;;;;;16.73;11.87;;;;;;;15.96;100.00;99703.53;5235466;56;1143201;-75
2022/09/13 22:33:56;;;;;;;15.77;11.03;;;;;;;15.92;100.00;99695.03;5235395;56;1143226;-75
2022/09/13 22:39:02;;;;;;;25.47;12.87;;;;;;;15.95;100.00;99700.53;5124439;56;1143236;-74
2022/09/13 22:44:08;;;;;;;20.53;12.73;;;;;;;15.91;100.00;99696.54;5160452;57;1143468;-75
2022/09/13 22:49:17;;;;;;;22.73;12.97;;;;;;;15.87;100.00;99691.25;5161301;56;1143201;-75
2022/09/13 22:54:25;;;;;;;21.67;13.57;;;;;;;15.83;100.00;99694.25;5236999;56;1143188;-75
2022/09/13 22:59:31;;;;;;;22.00;13.07;;;;;;;15.83;100.00;99684.09;5247019;56;1143346;-75
2022/09/13 23:04:37;;;;;;;16.87;13.50;;;;;;;15.81;100.00;99687.42;5247042;56;1143172;-75
2022/09/13 23:09:42;;;;;;;16.47;12.97;;;;;;;15.79;100.00;99676.10;5241465;56;1143266;-76
2022/09/13 23:14:48;;;;;;;18.10;12.23;;;;;;;15.73;100.00;99675.48;5246957;56;1143405;-76
2022/09/13 23:19:54;;;;;;;17.87;12.80;;;;;;;15.67;100.00;99682.31;5246950;56;1143220;-75
2022/09/13 23:25:00;;;;;;;16.27;14.37;;;;;;;15.60;100.00;99681.33;5247465;56;1143185;-74
2022/09/13 23:30:06;;;;;;;16.67;11.83;;;;;;;15.60;100.00;99685.83;5247556;56;1141110;-75